New Orleans NAS, Louisiana
Current Conditions -  °F | °C
As of 12:55 AM on Wednesday 22 Oct 2014 (Local Time) from KNBG Reporting Station
Clear Clear  
Wind Chill: 56°   Ceiling: Unl
Heat Index: 56°   Visibility: NA
Dew Point: 53°   Wind: 3mph
Humidity: 90%   Direction: 340°NNW
Pressure: 30.01"   Gusts: NA
Location:  29.83°N, 90.02°W
Report Text: KNBG 220555Z AUTO 34003KT CLR 13/12 A3001 RMK AO2 SLP161 T01330117 10183 20133 402670122 58007 TSNO $
Loading
Personal Weather Stations






























Interactive Weather Map
Tropical Storm Tracking
New forecast layout! Learn more

10-Day Weather Forecast

Advertisements
Track Severe Weather on mobile